WetterOnline ( https://www.wetteronline.at )

Wetter aktuell Itzehoe

Aktuelles Wetter: Itzehoe (26m)

6-stündlich | Neueste Meldungen
Ortszeit Temperatur Wetter
Sa, 25.03. 7:00 7.3° C Regen
Sa, 25.03. 1:00 8.8° C wolkenlos
Fr, 24.03. 19:00 11.0° C leicht bewölkt
Fr, 24.03. 13:00 12.2° C bewölkt
Fr, 24.03. 7:00 11.2° C Sprühregen
Fr, 24.03. 1:00 10.5° C bewölkt
Do, 23.03. 19:00 10.3° C wolkig
Do, 23.03. 13:00 11.9° C wolkig
Ortszeit Temperatur Wetter
Sa, 25.03. 9:30 7.7° C leichter Regen
Sa, 25.03. 9:20 7.7° C leichter Regen
Sa, 25.03. 9:10 8.3° C leichter Regen
Sa, 25.03. 9:00 8.3° C Regen
Sa, 25.03. 8:50 8.3° C bewölkt
Sa, 25.03. 8:40 8.0° C bewölkt
Sa, 25.03. 8:30 7.9° C Regen
Sa, 25.03. 8:00 7.8° C Sprühregen
Sa, 25.03. 7:30 7.3° C Regen
Sa, 25.03. 7:00 7.3° C Regen
Sa, 25.03. 6:30 7.6° C leichter Regen
Ortszeit Relative Feuchte Sichtweite
Sa, 25.03. 7:00 90% 8 km
Sa, 25.03. 1:00 82% 55 km
Fr, 24.03. 19:00 58% 55 km
Fr, 24.03. 13:00 68% 35 km
Fr, 24.03. 7:00 95% 23 km
Fr, 24.03. 1:00 87% 25 km
Do, 23.03. 19:00 77% 30 km
Do, 23.03. 13:00 70% 35 km
Ortszeit Relative Feuchte Sichtweite
Sa, 25.03. 9:30 91% 20 km
Sa, 25.03. 9:20 91% -
Sa, 25.03. 9:10 90% -
Sa, 25.03. 9:00 92% 30 km
Sa, 25.03. 8:50 92% -
Sa, 25.03. 8:40 93% -
Sa, 25.03. 8:30 94% 6 km
Sa, 25.03. 8:00 92% 16 km
Sa, 25.03. 7:30 93% 8 km
Sa, 25.03. 7:00 90% 8 km
Sa, 25.03. 6:30 90% 16 km
Ortszeit Niederschlagsmenge Niederschlagsart
Sa, 25.03. 7:00 2 l/m2 in 12 Std. Regen
Sa, 25.03. 1:00 0.1 l/m2 in 6 Std. Regen
Fr, 24.03. 19:00 1 l/m2 in 12 Std. -
Fr, 24.03. 13:00 1 l/m2 in 6 Std. Regen
Fr, 24.03. 7:00 5 l/m2 in 12 Std. Regen
Fr, 24.03. 1:00 0.1 l/m2 in 6 Std. Regen
Do, 23.03. 19:00 3 l/m2 in 12 Std. -
Do, 23.03. 13:00 3 l/m2 in 6 Std. Regen
Ortszeit Niederschlagsmenge Niederschlagsart
Sa, 25.03. 9:30 0.8 l/m2 in 30 Min -
Sa, 25.03. 9:20 keine Meldung -
Sa, 25.03. 9:10 keine Meldung -
Sa, 25.03. 9:00 1.6 l/m2 in 1 Std. Regen
Sa, 25.03. 8:50 keine Meldung -
Sa, 25.03. 8:40 keine Meldung -
Sa, 25.03. 8:30 0.8 l/m2 in 30 Min -
Sa, 25.03. 8:00 1.0 l/m2 in 1 Std. Regen
Sa, 25.03. 7:30 0.9 l/m2 in 30 Min -
Sa, 25.03. 7:00 1.4 l/m2 in 1 Std. Regen
Sa, 25.03. 6:30 0.2 l/m2 in 30 Min -
Ortszeit Stärke Spitze Richtung
km/h Bft. km/h Grad Sektor
Sa, 25.03. 7:00 13 3 33 210° SW
Sa, 25.03. 1:00 11 2 32 210° SW
Fr, 24.03. 19:00 11 2 40 230° SW
Fr, 24.03. 13:00 14 3 50 250° W
Fr, 24.03. 7:00 14 3 36 180° S
Fr, 24.03. 1:00 9 2 30 160° S
Do, 23.03. 19:00 2 1 37 190° S
Do, 23.03. 13:00 11 2 47 240° SW
Ortszeit Stärke Spitze Richtung
km/h Bft. km/h Grad Sektor
Sa, 25.03. 9:30 14 3 29 220° SW
Sa, 25.03. 9:20 14 3 - 220° SW
Sa, 25.03. 9:10 14 3 - 220° SW
Sa, 25.03. 9:00 11 2 29 220° SW
Sa, 25.03. 8:50 11 2 - 220° SW
Sa, 25.03. 8:40 11 2 - 220° SW
Sa, 25.03. 8:30 11 2 28 230° SW
Sa, 25.03. 8:00 9 2 24 210° SW
Sa, 25.03. 7:30 9 2 24 220° SW
Sa, 25.03. 7:00 13 3 33 210° SW
Sa, 25.03. 6:30 15 3 33 210° SW
Ortszeit Untergrenze Bedeckung Gattung
total tief tief mittel hoch
Sa, 25.03. 7:00 600 m 7/8 7/8 - - -
Sa, 25.03. 1:00 - 0/8 0/8 - - -
Fr, 24.03. 19:00 1500 m 3/8 1/8 - - -
Fr, 24.03. 13:00 780 m 7/8 7/8 - - -
Fr, 24.03. 7:00 240 m 7/8 7/8 - - -
Fr, 24.03. 1:00 1170 m 8/8 7/8 - - -
Do, 23.03. 19:00 1500 m 6/8 6/8 - - -
Do, 23.03. 13:00 870 m 7/8 3/8 - - -
Ortszeit Bedeckungsgrad in Achtel und Wolkenuntergrenze
Sa, 25.03. 9:30 1(480m) 7(930m) 8(1290m)
Sa, 25.03. 9:20 1(480m) 7(930m) 8(1290m)
Sa, 25.03. 9:10 8
Sa, 25.03. 9:00 2(360m) 6(570m) 7(870m)
Sa, 25.03. 8:50 2(360m) 6(570m) 7(870m)
Sa, 25.03. 8:40 7
Sa, 25.03. 8:30 3(300m) 5(480m) 7(600m)
Sa, 25.03. 8:00 4(540m) 7(960m) 8(1470m)
Sa, 25.03. 7:30 6(630m) 7(960m) 8(1170m)
Sa, 25.03. 7:00 2(600m) 4(810m) 7(990m)
Sa, 25.03. 6:30 1(450m) 4(840m) 7(1050m)
Ortszeit Luftdruck NN (hPa) Tendenz (hPa in 3 Std.)
Sa, 25.03. 7:00 998 + 0,1
Sa, 25.03. 1:00 998 - 0,9
Fr, 24.03. 19:00 999 + 0,2
Fr, 24.03. 13:00 999 + 1,4
Fr, 24.03. 7:00 994 - 2,8
Fr, 24.03. 1:00 1000 - 2,4
Do, 23.03. 19:00 1002 + 0,8
Do, 23.03. 13:00 1001 + 1,7
Ortszeit Luftdruck NN (hPa) Tendenz (hPa in 3 Std.)
Sa, 25.03. 9:30 998 + 0,5
Sa, 25.03. 9:20 998 keine Meldung
Sa, 25.03. 9:10 998 keine Meldung
Sa, 25.03. 9:00 998 + 0,6
Sa, 25.03. 8:50 998 keine Meldung
Sa, 25.03. 8:40 998 keine Meldung
Sa, 25.03. 8:30 998 + 0,6
Sa, 25.03. 8:00 998 + 0,6
Sa, 25.03. 7:30 998 + 0,4
Sa, 25.03. 7:00 998 + 0,1
Sa, 25.03. 6:30 997 - 0,2
Ortszeit Schneehöhe (cm)
Sa, 25.03. 7:00 -
Sa, 25.03. 1:00 -
Fr, 24.03. 19:00 -
Fr, 24.03. 13:00 -
Fr, 24.03. 7:00 -
Fr, 24.03. 1:00 -
Do, 23.03. 19:00 -
Do, 23.03. 13:00 -
Ortszeit Schneehöhe (cm)
Sa, 25.03. 9:30 -
Sa, 25.03. 9:20 -
Sa, 25.03. 9:10 -
Sa, 25.03. 9:00 -
Sa, 25.03. 8:50 -
Sa, 25.03. 8:40 -
Sa, 25.03. 8:30 -
Sa, 25.03. 8:00 -
Sa, 25.03. 7:30 -
Sa, 25.03. 7:00 -
Sa, 25.03. 6:30 -
Link zu dieser Seite / Seite empfehlen

Das Wetter in ...